sensor_id;sensor_type;location;lat;lon;timestamp;pressure;altitude;pressure_sealevel;temperature;humidity
2875;BME280;1445;52.600;13.328;2023-08-30T00:00:04;100354.41;;;14.16;nan
2875;BME280;1445;52.600;13.328;2023-08-30T00:02:30;100352.78;;;14.15;nan
2875;BME280;1445;52.600;13.328;2023-08-30T00:04:59;100344.22;;;14.29;nan
2875;BME280;1445;52.600;13.328;2023-08-30T00:07:24;100336.75;;;14.21;nan
2875;BME280;1445;52.600;13.328;2023-08-30T00:09:50;100342.38;;;14.12;nan
2875;BME280;1445;52.600;13.328;2023-08-30T00:12:15;100347.03;;;14.20;nan
2875;BME280;1445;52.600;13.328;2023-08-30T00:14:41;100341.63;;;14.24;nan
2875;BME280;1445;52.600;13.328;2023-08-30T00:17:07;100338.19;;;14.27;nan
2875;BME280;1445;52.600;13.328;2023-08-30T00:19:32;100332.50;;;14.23;nan
2875;BME280;1445;52.600;13.328;2023-08-30T00:21:57;100329.75;;;14.23;nan
2875;BME280;1445;52.600;13.328;2023-08-30T00:24:23;100332.22;;;14.16;nan
2875;BME280;1445;52.600;13.328;2023-08-30T00:26:48;100324.06;;;14.20;nan
2875;BME280;1445;52.600;13.328;2023-08-30T00:29:14;100324.53;;;14.22;nan
2875;BME280;1445;52.600;13.328;2023-08-30T00:31:39;100326.03;;;14.19;nan
2875;BME280;1445;52.600;13.328;2023-08-30T00:34:05;100323.72;;;14.21;nan
2875;BME280;1445;52.600;13.328;2023-08-30T00:36:30;100323.84;;;14.25;nan
2875;BME280;1445;52.600;13.328;2023-08-30T00:38:55;100324.06;;;14.20;nan
2875;BME280;1445;52.600;13.328;2023-08-30T00:41:21;100333.31;;;14.24;nan
2875;BME280;1445;52.600;13.328;2023-08-30T00:43:46;100323.00;;;14.33;nan
2875;BME280;1445;52.600;13.328;2023-08-30T00:46:13;100325.41;;;14.35;nan
2875;BME280;1445;52.600;13.328;2023-08-30T00:48:39;100324.06;;;14.41;nan
2875;BME280;1445;52.600;13.328;2023-08-30T00:51:06;100324.69;;;14.46;nan
2875;BME280;1445;52.600;13.328;2023-08-30T00:53:32;100319.97;;;14.47;nan
2875;BME280;1445;52.600;13.328;2023-08-30T00:55:57;100317.50;;;14.45;nan
2875;BME280;1445;52.600;13.328;2023-08-30T00:58:23;100317.84;;;14.23;nan
2875;BME280;1445;52.600;13.328;2023-08-30T01:00:48;100320.13;;;14.21;nan
2875;BME280;1445;52.600;13.328;2023-08-30T01:03:15;100313.84;;;14.12;nan
2875;BME280;1445;52.600;13.328;2023-08-30T01:05:40;100317.28;;;14.08;nan
2875;BME280;1445;52.600;13.328;2023-08-30T01:08:05;100328.16;;;14.14;nan
2875;BME280;1445;52.600;13.328;2023-08-30T01:11:03;100318.59;;;14.11;nan
2875;BME280;1445;52.600;13.328;2023-08-30T01:13:30;100321.53;;;14.06;nan
2875;BME280;1445;52.600;13.328;2023-08-30T01:15:58;100320.06;;;14.08;nan
2875;BME280;1445;52.600;13.328;2023-08-30T01:18:30;100328.94;;;13.93;nan
2875;BME280;1445;52.600;13.328;2023-08-30T01:20:58;100334.16;;;13.95;nan
2875;BME280;1445;52.600;13.328;2023-08-30T01:26:20;100337.09;;;13.90;nan
2875;BME280;1445;52.600;13.328;2023-08-30T01:28:51;100341.41;;;13.78;nan
2875;BME280;1445;52.600;13.328;2023-08-30T01:31:18;100342.22;;;13.79;nan
2875;BME280;1445;52.600;13.328;2023-08-30T01:33:45;100350.66;;;13.82;nan
2875;BME280;1445;52.600;13.328;2023-08-30T01:36:11;100351.00;;;13.81;nan
2875;BME280;1445;52.600;13.328;2023-08-30T01:38:38;100349.72;;;13.78;nan
2875;BME280;1445;52.600;13.328;2023-08-30T01:41:04;100354.59;;;13.81;nan
2875;BME280;1445;52.600;13.328;2023-08-30T01:43:30;100355.44;;;13.73;nan
2875;BME280;1445;52.600;13.328;2023-08-30T01:45:57;100354.50;;;13.69;nan
2875;BME280;1445;52.600;13.328;2023-08-30T01:48:24;100355.75;;;13.80;nan
2875;BME280;1445;52.600;13.328;2023-08-30T01:50:50;100356.19;;;13.82;nan
2875;BME280;1445;52.600;13.328;2023-08-30T01:53:16;100356.50;;;13.90;nan
2875;BME280;1445;52.600;13.328;2023-08-30T01:55:42;100357.34;;;13.81;nan
2875;BME280;1445;52.600;13.328;2023-08-30T01:58:07;100355.88;;;13.84;nan
2875;BME280;1445;52.600;13.328;2023-08-30T02:00:37;100354.44;;;13.78;nan
2875;BME280;1445;52.600;13.328;2023-08-30T02:03:13;100357.34;;;13.81;nan
2875;BME280;1445;52.600;13.328;2023-08-30T02:08:17;100357.19;;;13.87;nan
2875;BME280;1445;52.600;13.328;2023-08-30T02:10:57;100351.59;;;13.95;nan
2875;BME280;1445;52.600;13.328;2023-08-30T02:13:27;100347.88;;;13.82;nan
2875;BME280;1445;52.600;13.328;2023-08-30T02:15:58;100341.88;;;13.80;nan
2875;BME280;1445;52.600;13.328;2023-08-30T02:18:25;100333.44;;;13.77;nan
2875;BME280;1445;52.600;13.328;2023-08-30T02:20:51;100331.03;;;13.67;nan
2875;BME280;1445;52.600;13.328;2023-08-30T02:23:17;100333.28;;;13.73;nan
2875;BME280;1445;52.600;13.328;2023-08-30T02:25:43;100339.84;;;13.60;nan
2875;BME280;1445;52.600;13.328;2023-08-30T02:28:08;100335.91;;;13.70;nan
2875;BME280;1445;52.600;13.328;2023-08-30T02:30:33;100340.16;;;13.67;nan
2875;BME280;1445;52.600;13.328;2023-08-30T02:32:59;100341.63;;;13.65;nan
2875;BME280;1445;52.600;13.328;2023-08-30T02:35:24;100338.84;;;13.65;nan
2875;BME280;1445;52.600;13.328;2023-08-30T02:37:50;100344.44;;;13.56;nan
2875;BME280;1445;52.600;13.328;2023-08-30T02:40:15;100345.91;;;13.53;nan
2875;BME280;1445;52.600;13.328;2023-08-30T02:42:40;100347.66;;;13.58;nan
2875;BME280;1445;52.600;13.328;2023-08-30T02:45:06;100340.34;;;13.62;nan
2875;BME280;1445;52.600;13.328;2023-08-30T02:47:32;100347.81;;;13.61;nan
2875;BME280;1445;52.600;13.328;2023-08-30T02:49:57;100339.41;;;13.49;nan
2875;BME280;1445;52.600;13.328;2023-08-30T02:52:22;100329.69;;;13.34;nan
2875;BME280;1445;52.600;13.328;2023-08-30T02:54:48;100328.03;;;13.33;nan
2875;BME280;1445;52.600;13.328;2023-08-30T02:57:13;100332.97;;;13.28;nan
2875;BME280;1445;52.600;13.328;2023-08-30T02:59:39;100341.56;;;13.26;nan
2875;BME280;1445;52.600;13.328;2023-08-30T03:02:04;100335.38;;;13.29;nan
2875;BME280;1445;52.600;13.328;2023-08-30T03:04:30;100330.66;;;13.30;nan
2875;BME280;1445;52.600;13.328;2023-08-30T03:06:55;100322.50;;;13.42;nan
2875;BME280;1445;52.600;13.328;2023-08-30T03:09:20;100312.41;;;13.38;nan
2875;BME280;1445;52.600;13.328;2023-08-30T03:11:46;100317.16;;;13.28;nan
2875;BME280;1445;52.600;13.328;2023-08-30T03:14:11;100308.84;;;13.20;nan
2875;BME280;1445;52.600;13.328;2023-08-30T03:16:36;100299.56;;;13.16;nan
2875;BME280;1445;52.600;13.328;2023-08-30T03:19:02;100297.00;;;13.10;nan
2875;BME280;1445;52.600;13.328;2023-08-30T03:21:27;100301.25;;;12.99;nan
2875;BME280;1445;52.600;13.328;2023-08-30T03:23:53;100311.00;;;13.05;nan
2875;BME280;1445;52.600;13.328;2023-08-30T03:26:18;100313.13;;;13.00;nan
2875;BME280;1445;52.600;13.328;2023-08-30T03:28:44;100304.53;;;12.93;nan
2875;BME280;1445;52.600;13.328;2023-08-30T03:31:20;100309.72;;;12.94;nan
2875;BME280;1445;52.600;13.328;2023-08-30T03:33:47;100315.91;;;12.91;nan
2875;BME280;1445;52.600;13.328;2023-08-30T03:36:15;100314.63;;;12.88;nan
2875;BME280;1445;52.600;13.328;2023-08-30T03:38:41;100312.50;;;12.85;nan
2875;BME280;1445;52.600;13.328;2023-08-30T03:41:07;100324.06;;;12.79;nan
2875;BME280;1445;52.600;13.328;2023-08-30T03:43:33;100322.09;;;12.79;nan
2875;BME280;1445;52.600;13.328;2023-08-30T03:46:00;100319.84;;;12.81;nan
2875;BME280;1445;52.600;13.328;2023-08-30T03:48:26;100322.25;;;12.83;nan
2875;BME280;1445;52.600;13.328;2023-08-30T03:50:52;100327.97;;;12.86;nan
2875;BME280;1445;52.600;13.328;2023-08-30T03:53:17;100327.97;;;12.86;nan
2875;BME280;1445;52.600;13.328;2023-08-30T03:55:43;100335.59;;;12.89;nan
2875;BME280;1445;52.600;13.328;2023-08-30T03:58:16;100326.97;;;12.91;100.00
2875;BME280;1445;52.600;13.328;2023-08-30T04:00:41;100337.38;;;12.94;100.00
2875;BME280;1445;52.600;13.328;2023-08-30T04:03:09;100330.06;;;12.89;100.00
2875;BME280;1445;52.600;13.328;2023-08-30T04:05:35;100329.41;;;12.93;100.00
2875;BME280;1445;52.600;13.328;2023-08-30T04:08:02;100329.25;;;12.89;100.00
2875;BME280;1445;52.600;13.328;2023-08-30T04:10:28;100321.13;;;12.93;100.00
2875;BME280;1445;52.600;13.328;2023-08-30T04:12:54;100330.22;;;12.93;100.00
2875;BME280;1445;52.600;13.328;2023-08-30T04:15:19;100326.47;;;12.98;100.00
2875;BME280;1445;52.600;13.328;2023-08-30T04:17:45;100319.16;;;12.93;100.00
2875;BME280;1445;52.600;13.328;2023-08-30T04:20:11;100325.16;;;13.04;100.00
2875;BME280;1445;52.600;13.328;2023-08-30T04:22:36;100328.75;;;13.13;100.00
2875;BME280;1445;52.600;13.328;2023-08-30T04:25:03;100331.97;;;13.15;100.00
2875;BME280;1445;52.600;13.328;2023-08-30T04:27:29;100334.59;;;13.20;100.00
2875;BME280;1445;52.600;13.328;2023-08-30T04:29:54;100337.84;;;13.31;100.00
2875;BME280;1445;52.600;13.328;2023-08-30T04:32:20;100340.47;;;13.27;100.00
2875;BME280;1445;52.600;13.328;2023-08-30T04:34:45;100339.59;;;13.35;100.00
2875;BME280;1445;52.600;13.328;2023-08-30T04:37:11;100339.56;;;13.44;100.00
2875;BME280;1445;52.600;13.328;2023-08-30T04:39:37;100342.97;;;13.50;100.00
2875;BME280;1445;52.600;13.328;2023-08-30T04:42:02;100344.44;;;13.47;100.00
2875;BME280;1445;52.600;13.328;2023-08-30T04:44:28;100344.59;;;13.51;100.00
2875;BME280;1445;52.600;13.328;2023-08-30T04:46:54;100346.53;;;13.59;100.00
2875;BME280;1445;52.600;13.328;2023-08-30T04:49:21;100350.59;;;13.61;100.00
2875;BME280;1445;52.600;13.328;2023-08-30T04:51:47;100345.88;;;13.62;100.00
2875;BME280;1445;52.600;13.328;2023-08-30T04:54:12;100349.47;;;13.54;100.00
2875;BME280;1445;52.600;13.328;2023-08-30T04:56:39;100345.88;;;13.62;100.00
2875;BME280;1445;52.600;13.328;2023-08-30T04:59:04;100351.09;;;13.64;100.00
2875;BME280;1445;52.600;13.328;2023-08-30T05:01:30;100344.53;;;13.68;100.00
2875;BME280;1445;52.600;13.328;2023-08-30T05:03:56;100341.31;;;13.57;100.00
2875;BME280;1445;52.600;13.328;2023-08-30T05:06:21;100333.94;;;13.70;100.00
2875;BME280;1445;52.600;13.328;2023-08-30T05:08:47;100344.84;;;13.75;100.00
2875;BME280;1445;52.600;13.328;2023-08-30T05:11:13;100348.59;;;13.71;100.00
2875;BME280;1445;52.600;13.328;2023-08-30T05:13:38;100353.50;;;13.74;100.00
2875;BME280;1445;52.600;13.328;2023-08-30T05:16:04;100353.94;;;13.84;100.00
2875;BME280;1445;52.600;13.328;2023-08-30T05:18:30;100339.06;;;13.89;100.00
2875;BME280;1445;52.600;13.328;2023-08-30T05:20:55;100354.84;;;13.97;100.00
2875;BME280;1445;52.600;13.328;2023-08-30T05:23:21;100346.81;;;14.04;100.00
2875;BME280;1445;52.600;13.328;2023-08-30T05:25:47;100337.22;;;14.02;100.00
2875;BME280;1445;52.600;13.328;2023-08-30T05:28:12;100335.16;;;14.20;100.00
2875;BME280;1445;52.600;13.328;2023-08-30T05:30:41;100341.31;;;14.25;100.00
2875;BME280;1445;52.600;13.328;2023-08-30T05:33:06;100346.59;;;14.18;100.00
2875;BME280;1445;52.600;13.328;2023-08-30T05:35:32;100350.91;;;14.28;100.00
2875;BME280;1445;52.600;13.328;2023-08-30T05:37:57;100353.50;;;14.33;100.00
2875;BME280;1445;52.600;13.328;2023-08-30T05:40:23;100345.22;;;14.54;100.00
2875;BME280;1445;52.600;13.328;2023-08-30T05:42:50;100343.88;;;14.60;100.00
2875;BME280;1445;52.600;13.328;2023-08-30T05:45:15;100340.78;;;14.74;100.00
2875;BME280;1445;52.600;13.328;2023-08-30T05:47:41;100337.22;;;14.73;100.00
2875;BME280;1445;52.600;13.328;2023-08-30T05:50:07;100334.97;;;14.88;100.00
2875;BME280;1445;52.600;13.328;2023-08-30T05:52:33;100332.72;;;14.81;100.00
2875;BME280;1445;52.600;13.328;2023-08-30T05:54:59;100323.81;;;14.75;100.00
2875;BME280;1445;52.600;13.328;2023-08-30T05:57:24;100320.97;;;14.84;100.00
2875;BME280;1445;52.600;13.328;2023-08-30T05:59:51;100314.69;;;14.75;100.00
2875;BME280;1445;52.600;13.328;2023-08-30T06:02:16;100318.28;;;14.75;100.00
2875;BME280;1445;52.600;13.328;2023-08-30T06:04:42;100325.56;;;14.80;100.00
2875;BME280;1445;52.600;13.328;2023-08-30T06:07:07;100308.38;;;14.87;100.00
2875;BME280;1445;52.600;13.328;2023-08-30T06:09:33;100311.03;;;14.83;100.00
2875;BME280;1445;52.600;13.328;2023-08-30T06:11:59;100314.91;;;15.03;100.00
2875;BME280;1445;52.600;13.328;2023-08-30T06:14:25;100303.84;;;15.15;100.00
2875;BME280;1445;52.600;13.328;2023-08-30T06:16:51;100304.69;;;15.28;100.00
2875;BME280;1445;52.600;13.328;2023-08-30T06:19:16;100307.53;;;15.07;100.00
2875;BME280;1445;52.600;13.328;2023-08-30T06:21:42;100303.50;;;15.17;100.00
2875;BME280;1445;52.600;13.328;2023-08-30T06:24:07;100298.38;;;15.07;100.00
2875;BME280;1445;52.600;13.328;2023-08-30T06:26:34;100310.44;;;15.23;100.00
2875;BME280;1445;52.600;13.328;2023-08-30T06:28:59;100301.06;;;15.15;100.00
2875;BME280;1445;52.600;13.328;2023-08-30T06:31:25;100298.25;;;15.03;100.00
2875;BME280;1445;52.600;13.328;2023-08-30T06:33:51;100302.53;;;15.13;100.00
2875;BME280;1445;52.600;13.328;2023-08-30T06:36:17;100301.97;;;15.07;100.00
2875;BME280;1445;52.600;13.328;2023-08-30T06:38:43;100300.84;;;15.20;100.00
2875;BME280;1445;52.600;13.328;2023-08-30T06:41:09;100310.31;;;15.19;100.00
2875;BME280;1445;52.600;13.328;2023-08-30T06:43:34;100305.00;;;15.14;100.00
2875;BME280;1445;52.600;13.328;2023-08-30T06:46:00;100299.56;;;15.30;100.00
2875;BME280;1445;52.600;13.328;2023-08-30T06:48:26;100304.81;;;15.32;100.00
2875;BME280;1445;52.600;13.328;2023-08-30T06:50:51;100296.81;;;15.30;100.00
2875;BME280;1445;52.600;13.328;2023-08-30T06:53:17;100294.88;;;15.43;100.00
2875;BME280;1445;52.600;13.328;2023-08-30T06:55:42;100290.47;;;15.42;100.00
2875;BME280;1445;52.600;13.328;2023-08-30T06:58:08;100289.56;;;15.62;100.00
2875;BME280;1445;52.600;13.328;2023-08-30T07:00:33;100285.19;;;15.86;100.00
2875;BME280;1445;52.600;13.328;2023-08-30T07:02:59;100285.88;;;15.83;100.00
2875;BME280;1445;52.600;13.328;2023-08-30T07:05:25;100286.34;;;15.85;100.00
2875;BME280;1445;52.600;13.328;2023-08-30T07:07:50;100278.69;;;15.94;100.00
2875;BME280;1445;52.600;13.328;2023-08-30T07:10:16;100284.63;;;15.80;100.00
2875;BME280;1445;52.600;13.328;2023-08-30T07:12:42;100275.69;;;15.62;100.00
2875;BME280;1445;52.600;13.328;2023-08-30T07:15:08;100280.06;;;15.63;100.00
2875;BME280;1445;52.600;13.328;2023-08-30T07:17:33;100281.22;;;15.62;100.00
2875;BME280;1445;52.600;13.328;2023-08-30T07:19:59;100276.50;;;15.75;100.00
2875;BME280;1445;52.600;13.328;2023-08-30T07:22:24;100280.22;;;15.67;100.00
2875;BME280;1445;52.600;13.328;2023-08-30T07:24:50;100284.84;;;15.75;100.00
2875;BME280;1445;52.600;13.328;2023-08-30T07:27:16;100272.19;;;15.90;100.00
2875;BME280;1445;52.600;13.328;2023-08-30T07:29:42;100267.09;;;16.04;100.00
2875;BME280;1445;52.600;13.328;2023-08-30T07:32:09;100260.69;;;16.16;100.00
2875;BME280;1445;52.600;13.328;2023-08-30T07:34:34;100261.22;;;16.34;100.00
2875;BME280;1445;52.600;13.328;2023-08-30T07:37:00;100257.66;;;16.21;100.00
2875;BME280;1445;52.600;13.328;2023-08-30T07:39:26;100256.31;;;16.15;100.00
2875;BME280;1445;52.600;13.328;2023-08-30T07:41:52;100256.25;;;16.27;100.00
2875;BME280;1445;52.600;13.328;2023-08-30T07:44:17;100253.56;;;16.43;100.00
2875;BME280;1445;52.600;13.328;2023-08-30T07:46:45;100255.19;;;16.72;100.00
2875;BME280;1445;52.600;13.328;2023-08-30T07:49:10;100245.38;;;16.90;100.00
2875;BME280;1445;52.600;13.328;2023-08-30T07:51:36;100242.72;;;17.10;100.00
2875;BME280;1445;52.600;13.328;2023-08-30T07:54:01;100235.25;;;17.14;100.00
2875;BME280;1445;52.600;13.328;2023-08-30T07:56:27;100231.47;;;17.22;100.00
2875;BME280;1445;52.600;13.328;2023-08-30T07:58:53;100230.66;;;17.22;100.00
2875;BME280;1445;52.600;13.328;2023-08-30T08:01:19;100223.31;;;17.13;100.00
2875;BME280;1445;52.600;13.328;2023-08-30T08:03:45;100220.31;;;17.22;100.00
2875;BME280;1445;52.600;13.328;2023-08-30T08:06:10;100220.06;;;17.59;100.00
2875;BME280;1445;52.600;13.328;2023-08-30T08:08:36;100205.13;;;17.35;100.00
2875;BME280;1445;52.600;13.328;2023-08-30T08:11:02;100206.75;;;17.36;100.00
2875;BME280;1445;52.600;13.328;2023-08-30T08:13:27;100205.78;;;17.29;100.00
2875;BME280;1445;52.600;13.328;2023-08-30T08:15:56;100202.06;;;17.40;100.00
2875;BME280;1445;52.600;13.328;2023-08-30T08:18:21;100206.50;;;17.26;100.00
2875;BME280;1445;52.600;13.328;2023-08-30T08:20:47;100207.28;;;17.42;100.00
2875;BME280;1445;52.600;13.328;2023-08-30T08:23:12;100209.88;;;16.87;100.00
2875;BME280;1445;52.600;13.328;2023-08-30T08:25:38;100213.84;;;17.34;100.00
2875;BME280;1445;52.600;13.328;2023-08-30T08:28:04;100215.88;;;17.69;100.00
2875;BME280;1445;52.600;13.328;2023-08-30T08:30:29;100190.91;;;18.46;100.00
2875;BME280;1445;52.600;13.328;2023-08-30T08:32:55;100178.88;;;18.65;100.00
2875;BME280;1445;52.600;13.328;2023-08-30T08:35:21;100161.81;;;18.47;100.00
2875;BME280;1445;52.600;13.328;2023-08-30T08:37:46;100157.66;;;19.03;100.00
2875;BME280;1445;52.600;13.328;2023-08-30T08:40:12;100150.47;;;18.79;100.00
2875;BME280;1445;52.600;13.328;2023-08-30T08:42:38;100139.88;;;18.92;100.00
2875;BME280;1445;52.600;13.328;2023-08-30T08:45:04;100142.75;;;18.95;100.00
2875;BME280;1445;52.600;13.328;2023-08-30T08:47:30;100123.28;;;19.52;100.00
2875;BME280;1445;52.600;13.328;2023-08-30T08:49:57;100123.91;;;19.95;100.00
2875;BME280;1445;52.600;13.328;2023-08-30T08:52:23;100109.19;;;20.39;100.00
2875;BME280;1445;52.600;13.328;2023-08-30T08:54:49;100112.47;;;20.82;100.00
2875;BME280;1445;52.600;13.328;2023-08-30T08:57:16;100104.94;;;20.89;100.00
2875;BME280;1445;52.600;13.328;2023-08-30T08:59:42;100097.97;;;21.24;100.00
2875;BME280;1445;52.600;13.328;2023-08-30T09:02:09;100094.03;;;20.81;100.00
2875;BME280;1445;52.600;13.328;2023-08-30T09:04:38;100081.94;;;21.21;100.00
2875;BME280;1445;52.600;13.328;2023-08-30T09:07:04;100091.88;;;21.11;100.00
2875;BME280;1445;52.600;13.328;2023-08-30T09:09:30;100088.19;;;19.85;100.00
2875;BME280;1445;52.600;13.328;2023-08-30T09:11:56;100095.34;;;19.25;100.00
2875;BME280;1445;52.600;13.328;2023-08-30T09:14:22;100102.38;;;19.16;100.00
2875;BME280;1445;52.600;13.328;2023-08-30T09:16:55;100094.63;;;19.89;100.00
2875;BME280;1445;52.600;13.328;2023-08-30T09:19:21;100104.84;;;19.47;100.00
2875;BME280;1445;52.600;13.328;2023-08-30T09:21:52;100095.19;;;20.01;100.00
2875;BME280;1445;52.600;13.328;2023-08-30T09:24:18;100101.13;;;19.40;100.00
2875;BME280;1445;52.600;13.328;2023-08-30T09:26:47;100095.69;;;19.77;100.00
2875;BME280;1445;52.600;13.328;2023-08-30T09:29:16;100095.63;;;19.17;100.00
2875;BME280;1445;52.600;13.328;2023-08-30T09:31:42;100110.09;;;18.53;100.00
2875;BME280;1445;52.600;13.328;2023-08-30T09:34:08;100097.75;;;18.77;100.00
2875;BME280;1445;52.600;13.328;2023-08-30T09:39:04;100108.22;;;19.34;100.00
2875;BME280;1445;52.600;13.328;2023-08-30T09:41:30;100101.81;;;19.60;100.00
2875;BME280;1445;52.600;13.328;2023-08-30T09:43:56;100104.22;;;19.61;100.00
2875;BME280;1445;52.600;13.328;2023-08-30T09:46:22;100090.94;;;20.11;100.00
2875;BME280;1445;52.600;13.328;2023-08-30T09:48:49;100086.97;;;20.53;100.00
2875;BME280;1445;52.600;13.328;2023-08-30T09:51:15;100081.44;;;20.23;100.00
2875;BME280;1445;52.600;13.328;2023-08-30T09:53:44;100090.59;;;19.86;100.00
2875;BME280;1445;52.600;13.328;2023-08-30T09:56:14;100089.22;;;19.69;100.00
2875;BME280;1445;52.600;13.328;2023-08-30T09:58:41;100083.44;;;19.89;100.00
2875;BME280;1445;52.600;13.328;2023-08-30T10:01:07;100086.75;;;20.35;100.00
2875;BME280;1445;52.600;13.328;2023-08-30T10:03:34;100079.09;;;20.66;100.00
2875;BME280;1445;52.600;13.328;2023-08-30T10:06:01;100068.97;;;20.98;100.00
2875;BME280;1445;52.600;13.328;2023-08-30T10:08:32;100059.81;;;21.71;100.00
2875;BME280;1445;52.600;13.328;2023-08-30T10:10:59;100060.56;;;21.61;100.00
2875;BME280;1445;52.600;13.328;2023-08-30T10:13:25;100054.47;;;22.75;100.00
2875;BME280;1445;52.600;13.328;2023-08-30T10:15:54;100053.94;;;22.05;100.00
2875;BME280;1445;52.600;13.328;2023-08-30T10:18:22;100055.09;;;22.00;100.00
2875;BME280;1445;52.600;13.328;2023-08-30T10:20:54;100053.06;;;21.93;100.00
2875;BME280;1445;52.600;13.328;2023-08-30T10:23:20;100045.63;;;22.80;100.00
2875;BME280;1445;52.600;13.328;2023-08-30T10:25:48;100043.22;;;22.75;100.00
2875;BME280;1445;52.600;13.328;2023-08-30T10:28:15;100042.41;;;22.89;100.00
2875;BME280;1445;52.600;13.328;2023-08-30T10:30:42;100032.56;;;21.75;100.00
2875;BME280;1445;52.600;13.328;2023-08-30T10:33:12;100039.16;;;22.22;100.00
2875;BME280;1445;52.600;13.328;2023-08-30T10:35:47;100043.78;;;21.06;100.00
2875;BME280;1445;52.600;13.328;2023-08-30T10:38:24;100045.03;;;20.60;100.00
2875;BME280;1445;52.600;13.328;2023-08-30T10:40:52;100052.56;;;20.53;100.00
2875;BME280;1445;52.600;13.328;2023-08-30T10:43:28;100048.97;;;21.62;100.00
2875;BME280;1445;52.600;13.328;2023-08-30T10:46:02;100056.75;;;22.05;100.00
2875;BME280;1445;52.600;13.328;2023-08-30T10:48:38;100051.25;;;22.51;100.00
2875;BME280;1445;52.600;13.328;2023-08-30T10:51:06;100051.25;;;22.76;100.00
2875;BME280;1445;52.600;13.328;2023-08-30T10:53:32;100048.66;;;21.85;100.00
2875;BME280;1445;52.600;13.328;2023-08-30T10:56:11;100046.84;;;23.04;100.00
2875;BME280;1445;52.600;13.328;2023-08-30T10:58:43;100044.34;;;23.49;100.00
2875;BME280;1445;52.600;13.328;2023-08-30T11:01:12;100049.25;;;23.05;100.00
2875;BME280;1445;52.600;13.328;2023-08-30T11:03:40;100048.28;;;23.76;100.00
2875;BME280;1445;52.600;13.328;2023-08-30T11:06:05;100041.00;;;23.83;100.00
2875;BME280;1445;52.600;13.328;2023-08-30T11:08:31;100048.47;;;24.14;100.00
2875;BME280;1445;52.600;13.328;2023-08-30T11:11:03;100044.03;;;24.80;100.00
2875;BME280;1445;52.600;13.328;2023-08-30T11:13:30;100052.41;;;23.32;100.00
2875;BME280;1445;52.600;13.328;2023-08-30T11:16:02;100050.81;;;22.53;100.00
2875;BME280;1445;52.600;13.328;2023-08-30T11:18:30;100055.25;;;22.39;100.00
2875;BME280;1445;52.600;13.328;2023-08-30T11:21:00;100055.50;;;23.81;100.00
2875;BME280;1445;52.600;13.328;2023-08-30T11:23:26;100049.75;;;24.69;100.00
2875;BME280;1445;52.600;13.328;2023-08-30T11:25:52;100044.81;;;23.12;100.00
2875;BME280;1445;52.600;13.328;2023-08-30T11:28:22;100045.78;;;23.93;100.00
2875;BME280;1445;52.600;13.328;2023-08-30T11:30:48;100051.59;;;23.39;100.00
2875;BME280;1445;52.600;13.328;2023-08-30T11:33:17;100043.88;;;23.61;100.00
2875;BME280;1445;52.600;13.328;2023-08-30T11:35:43;100046.84;;;22.57;100.00
2875;BME280;1445;52.600;13.328;2023-08-30T11:38:09;100056.09;;;21.46;100.00
2875;BME280;1445;52.600;13.328;2023-08-30T11:40:35;100042.88;;;21.50;100.00
2875;BME280;1445;52.600;13.328;2023-08-30T11:43:02;100055.34;;;21.56;100.00
2875;BME280;1445;52.600;13.328;2023-08-30T11:45:32;100045.34;;;21.65;100.00
2875;BME280;1445;52.600;13.328;2023-08-30T11:47:59;100046.38;;;22.20;100.00
2875;BME280;1445;52.600;13.328;2023-08-30T11:50:25;100041.06;;;21.97;100.00
2875;BME280;1445;52.600;13.328;2023-08-30T11:52:52;100047.41;;;21.79;100.00
2875;BME280;1445;52.600;13.328;2023-08-30T11:55:18;100046.81;;;22.32;100.00
2875;BME280;1445;52.600;13.328;2023-08-30T11:57:44;100052.06;;;23.02;100.00
2875;BME280;1445;52.600;13.328;2023-08-30T12:00:11;100039.59;;;22.60;100.00
2875;BME280;1445;52.600;13.328;2023-08-30T12:02:37;100041.59;;;22.42;100.00
2875;BME280;1445;52.600;13.328;2023-08-30T12:05:03;100037.84;;;21.87;100.00
2875;BME280;1445;52.600;13.328;2023-08-30T12:07:30;100048.09;;;21.55;100.00
2875;BME280;1445;52.600;13.328;2023-08-30T12:10:06;100042.50;;;21.55;100.00
2875;BME280;1445;52.600;13.328;2023-08-30T12:12:32;100036.13;;;21.61;100.00
2875;BME280;1445;52.600;13.328;2023-08-30T12:14:58;100032.34;;;22.20;100.00
2875;BME280;1445;52.600;13.328;2023-08-30T12:17:24;100029.56;;;23.05;100.00
2875;BME280;1445;52.600;13.328;2023-08-30T12:19:57;100019.31;;;23.79;100.00
2875;BME280;1445;52.600;13.328;2023-08-30T12:22:38;100031.91;;;23.36;100.00
2875;BME280;1445;52.600;13.328;2023-08-30T12:25:04;100028.34;;;23.24;100.00
2875;BME280;1445;52.600;13.328;2023-08-30T12:27:30;100034.78;;;22.50;100.00
2875;BME280;1445;52.600;13.328;2023-08-30T12:29:56;100023.44;;;21.16;100.00
2875;BME280;1445;52.600;13.328;2023-08-30T12:32:22;100029.06;;;20.61;100.00
2875;BME280;1445;52.600;13.328;2023-08-30T12:34:48;100029.34;;;20.96;100.00
2875;BME280;1445;52.600;13.328;2023-08-30T12:37:14;100026.78;;;20.81;100.00
2875;BME280;1445;52.600;13.328;2023-08-30T12:39:39;100025.25;;;20.42;100.00
2875;BME280;1445;52.600;13.328;2023-08-30T12:42:06;100028.31;;;20.26;100.00
2875;BME280;1445;52.600;13.328;2023-08-30T12:44:31;100030.06;;;20.01;100.00
2875;BME280;1445;52.600;13.328;2023-08-30T12:46:57;100024.06;;;20.02;100.00
2875;BME280;1445;52.600;13.328;2023-08-30T12:49:22;100030.31;;;20.26;100.00
2875;BME280;1445;52.600;13.328;2023-08-30T12:51:48;100020.72;;;20.27;100.00
2875;BME280;1445;52.600;13.328;2023-08-30T12:54:14;100029.06;;;19.86;100.00
2875;BME280;1445;52.600;13.328;2023-08-30T12:56:40;100025.88;;;19.84;100.00
2875;BME280;1445;52.600;13.328;2023-08-30T12:59:05;100031.94;;;19.60;100.00
2875;BME280;1445;52.600;13.328;2023-08-30T13:01:31;100024.66;;;19.85;100.00
2875;BME280;1445;52.600;13.328;2023-08-30T13:03:57;100023.56;;;20.31;100.00